createdAt,value
2023-04-01T00:04:52.830Z,7.43
2023-04-01T00:09:58.254Z,6.95
2023-04-01T00:15:05.269Z,7.20
2023-04-01T00:20:15.956Z,5.22
2023-04-01T00:25:31.959Z,6.50
2023-04-01T00:30:40.445Z,6.18
2023-04-01T00:35:48.806Z,7.35
2023-04-01T00:40:54.211Z,8.93
2023-04-01T00:45:59.707Z,8.45
2023-04-01T00:51:12.830Z,9.45
2023-04-01T00:56:20.779Z,7.93
2023-04-01T01:01:39.690Z,5.00
2023-04-01T01:07:30.617Z,5.72
2023-04-01T01:12:52.820Z,8.27
2023-04-01T01:19:11.266Z,5.78
2023-04-01T01:25:23.842Z,5.40
2023-04-01T01:31:41.895Z,6.88
2023-04-01T01:36:59.503Z,5.43
2023-04-01T01:42:11.952Z,7.20
2023-04-01T01:47:58.204Z,6.45
2023-04-01T01:53:11.611Z,6.97
2023-04-01T02:03:48.289Z,5.75
2023-04-01T02:08:59.144Z,5.45
2023-04-01T02:14:10.790Z,6.60
2023-04-01T02:19:23.943Z,10.25
2023-04-01T02:24:35.982Z,7.28
2023-04-01T02:29:46.265Z,7.07
2023-04-01T02:34:54.977Z,7.68
2023-04-01T02:40:15.815Z,5.38
2023-04-01T02:45:21.655Z,8.38
2023-04-01T02:50:27.080Z,10.00
2023-04-01T02:55:35.742Z,9.75
2023-04-01T03:00:42.381Z,5.35
2023-04-01T03:05:50.942Z,7.10
2023-04-01T03:11:02.153Z,9.13
2023-04-01T03:16:07.796Z,14.13
2023-04-01T03:21:20.490Z,8.40
2023-04-01T03:26:32.249Z,8.23
2023-04-01T03:31:40.649Z,13.32
2023-04-01T03:36:50.895Z,9.73
2023-04-01T03:41:59.414Z,7.32
2023-04-01T03:47:06.416Z,9.52
2023-04-01T03:52:14.903Z,9.73
2023-04-01T03:57:28.867Z,13.77
2023-04-01T04:02:39.912Z,11.15
2023-04-01T04:07:45.908Z,9.13
2023-04-01T04:12:56.637Z,7.35
2023-04-01T04:18:07.234Z,9.35
2023-04-01T04:23:12.818Z,8.40
2023-04-01T04:28:20.956Z,12.80
2023-04-01T04:33:30.700Z,8.80
2023-04-01T04:38:37.861Z,6.32
2023-04-01T04:43:46.216Z,9.35
2023-04-01T04:48:54.354Z,6.05
2023-04-01T04:53:59.868Z,7.35
2023-04-01T05:00:00.262Z,6.60
2023-04-01T05:05:10.383Z,8.38
2023-04-01T05:10:26.539Z,8.90
2023-04-01T05:15:53.682Z,6.70
2023-04-01T05:20:59.471Z,7.97
2023-04-01T05:26:07.935Z,9.40
2023-04-01T05:31:23.102Z,9.05
2023-04-01T05:36:28.597Z,9.02
2023-04-01T05:41:39.276Z,10.38
2023-04-01T05:46:55.370Z,9.52
2023-04-01T05:52:07.888Z,10.05
2023-04-01T05:57:28.109Z,10.13
2023-04-01T06:07:41.512Z,9.50
2023-04-01T06:13:11.542Z,11.27
2023-04-01T06:19:10.932Z,8.32
2023-04-01T06:24:43.816Z,8.95
2023-04-01T06:36:14.449Z,8.75
2023-04-01T06:42:04.732Z,8.57
2023-04-01T06:47:19.227Z,9.55
2023-04-01T06:52:28.191Z,7.07
2023-04-01T06:57:58.538Z,5.82
2023-04-01T07:03:15.961Z,8.02
2023-04-01T07:08:27.556Z,8.32
2023-04-01T07:19:36.362Z,7.57
2023-04-01T07:56:30.976Z,9.45
2023-04-01T09:04:34.004Z,7.70
2023-04-01T09:10:21.268Z,9.95
2023-04-01T09:16:03.009Z,6.93
2023-04-01T09:21:36.857Z,6.68
2023-04-01T09:27:08.032Z,13.48
2023-04-01T09:32:29.451Z,10.88
2023-04-01T09:37:57.708Z,9.07
2023-04-01T09:43:37.823Z,6.30
2023-04-01T09:49:20.127Z,4.72
2023-04-01T09:54:54.606Z,3.85
2023-04-01T10:06:17.862Z,4.38
2023-04-01T10:12:02.400Z,8.38
2023-04-01T10:17:44.236Z,14.90
2023-04-01T10:23:07.800Z,10.40
2023-04-01T10:28:50.599Z,7.00
2023-04-01T10:34:16.366Z,6.88
2023-04-01T10:40:11.036Z,7.70
2023-04-01T10:45:56.869Z,8.07
2023-04-01T10:51:30.776Z,6.07
2023-04-01T10:56:46.907Z,5.63
2023-04-01T11:02:13.797Z,5.10
2023-04-01T11:08:06.126Z,9.10
2023-04-01T11:14:08.616Z,7.63
2023-04-01T11:26:11.659Z,5.97
2023-04-01T11:31:45.900Z,5.90
2023-04-01T11:37:09.268Z,6.13
2023-04-01T11:42:33.188Z,10.55
2023-04-01T11:48:27.041Z,7.43
2023-04-01T11:54:19.572Z,6.40
2023-04-01T12:00:08.590Z,7.68
2023-04-01T12:11:29.392Z,7.40
2023-04-01T12:17:04.648Z,9.75
2023-04-01T12:22:42.560Z,8.43
2023-04-01T12:58:31.836Z,8.05
2023-04-01T13:16:53.751Z,5.70
2023-04-01T13:22:17.758Z,7.57
2023-04-01T13:51:11.753Z,8.50
2023-04-01T13:56:25.226Z,10.27
2023-04-01T14:01:55.236Z,12.35
2023-04-01T14:07:59.749Z,7.15
2023-04-01T14:13:22.243Z,7.10
2023-04-01T14:18:56.844Z,5.93
2023-04-01T14:24:29.070Z,6.88
2023-04-01T14:29:44.393Z,7.35
2023-04-01T14:35:04.798Z,6.47
2023-04-01T14:40:25.358Z,5.63
2023-04-01T14:51:18.908Z,6.22
2023-04-01T14:56:50.799Z,6.55
2023-04-01T15:02:05.876Z,7.40
2023-04-01T15:07:33.925Z,7.78
2023-04-01T15:12:48.152Z,7.82
2023-04-01T15:23:21.996Z,7.72
2023-04-01T15:28:34.999Z,8.68
2023-04-01T15:33:55.033Z,8.98
2023-04-01T15:39:14.553Z,8.70
2023-04-01T15:44:52.385Z,6.97
2023-04-01T15:50:08.382Z,5.80
2023-04-01T15:55:33.114Z,8.02
2023-04-01T16:00:47.747Z,7.70
2023-04-01T16:06:05.007Z,7.65
2023-04-01T16:11:28.215Z,6.90
2023-04-01T16:16:45.828Z,10.18
2023-04-01T16:22:02.071Z,8.30
2023-04-01T16:27:47.744Z,8.05
2023-04-01T16:39:13.784Z,5.63
2023-04-01T16:51:05.792Z,7.05
2023-04-01T17:07:12.354Z,4.78
2023-04-01T17:12:34.271Z,4.65
2023-04-01T17:23:56.936Z,7.45
2023-04-01T17:29:14.580Z,9.63
2023-04-01T17:34:55.979Z,7.50
2023-04-01T19:25:58.757Z,2.75
2023-04-01T19:31:13.145Z,3.80
2023-04-01T19:36:22.139Z,3.70
2023-04-01T19:41:40.036Z,4.20
2023-04-01T19:46:53.013Z,1.92
2023-04-01T19:52:06.052Z,2.58
2023-04-01T19:57:33.170Z,2.42
2023-04-01T20:02:52.247Z,5.53
2023-04-01T20:08:02.924Z,4.93
2023-04-01T20:13:19.384Z,5.45
2023-04-01T20:18:33.148Z,6.35
2023-04-01T20:23:47.109Z,3.38
2023-04-01T20:29:21.295Z,3.63
2023-04-01T20:34:46.596Z,6.43
2023-04-01T20:40:32.016Z,6.38
2023-04-01T20:45:48.218Z,4.28
2023-04-01T20:50:57.100Z,4.63
2023-04-01T20:56:27.815Z,4.68
2023-04-01T21:01:54.184Z,4.75
2023-04-01T21:07:19.447Z,3.13
2023-04-01T21:12:35.214Z,4.63
2023-04-01T21:18:00.205Z,5.00
2023-04-01T21:23:35.176Z,2.20
2023-04-01T21:28:51.131Z,4.22
2023-04-01T21:34:12.455Z,2.85
2023-04-01T21:51:53.584Z,8.35
2023-04-01T21:57:22.188Z,5.40
2023-04-01T22:02:56.910Z,4.20
2023-04-01T22:08:22.259Z,3.92
2023-04-01T22:13:51.432Z,3.30
2023-04-01T22:19:11.478Z,4.95
2023-04-01T22:24:36.935Z,3.05
2023-04-01T22:29:51.862Z,3.22
2023-04-01T22:35:01.438Z,4.50
2023-04-01T22:40:28.316Z,2.58
2023-04-01T22:51:20.228Z,3.72
2023-04-01T22:56:33.670Z,4.38
2023-04-01T23:01:46.406Z,5.55
2023-04-01T23:07:04.124Z,5.60
2023-04-01T23:12:27.164Z,6.85
2023-04-01T23:18:28.249Z,8.93
2023-04-01T23:24:17.388Z,15.18
2023-04-01T23:29:48.942Z,15.25
2023-04-01T23:34:58.628Z,10.75
2023-04-01T23:40:09.339Z,11.20
2023-04-01T23:52:20.511Z,10.38
2023-04-01T23:56:40.121Z,9.48
